sensor_id;sensor_type;location;lat;lon;timestamp;P1;durP1;ratioP1;P2;durP2;ratioP2
66830;SDS011;53739;44.224;22.528;2023-04-24T04:48:48;32.60;;;24.92;;
66830;SDS011;53739;44.224;22.528;2023-04-24T04:51:14;41.60;;;31.08;;
66830;SDS011;53739;44.224;22.528;2023-04-24T05:10:02;31.75;;;25.58;;
66830;SDS011;53739;44.224;22.528;2023-04-24T05:32:06;34.85;;;25.58;;
66830;SDS011;53739;44.224;22.528;2023-04-24T05:34:54;35.05;;;24.13;;
66830;SDS011;53739;44.224;22.528;2023-04-24T05:37:28;27.70;;;22.98;;
66830;SDS011;53739;44.224;22.528;2023-04-24T05:49:33;19.70;;;15.80;;
66830;SDS011;53739;44.224;22.528;2023-04-24T05:51:59;27.40;;;19.88;;
66830;SDS011;53739;44.224;22.528;2023-04-24T05:54:33;24.58;;;17.60;;
66830;SDS011;53739;44.224;22.528;2023-04-24T05:57:04;24.95;;;16.48;;
66830;SDS011;53739;44.224;22.528;2023-04-24T05:59:38;18.42;;;13.88;;
66830;SDS011;53739;44.224;22.528;2023-04-24T06:02:05;21.40;;;17.40;;
66830;SDS011;53739;44.224;22.528;2023-04-24T06:04:31;18.80;;;15.07;;
66830;SDS011;53739;44.224;22.528;2023-04-24T06:06:58;22.83;;;17.90;;
66830;SDS011;53739;44.224;22.528;2023-04-24T06:09:24;28.60;;;20.13;;
66830;SDS011;53739;44.224;22.528;2023-04-24T06:11:51;21.17;;;18.92;;
66830;SDS011;53739;44.224;22.528;2023-04-24T06:14:22;17.30;;;14.55;;
66830;SDS011;53739;44.224;22.528;2023-04-24T06:17:01;22.58;;;17.85;;
66830;SDS011;53739;44.224;22.528;2023-04-24T06:19:34;22.17;;;17.88;;
66830;SDS011;53739;44.224;22.528;2023-04-24T06:22:00;20.42;;;17.35;;
66830;SDS011;53739;44.224;22.528;2023-04-24T06:24:46;23.55;;;18.95;;
66830;SDS011;53739;44.224;22.528;2023-04-24T06:27:35;26.02;;;20.17;;
66830;SDS011;53739;44.224;22.528;2023-04-24T06:30:13;26.98;;;20.67;;
66830;SDS011;53739;44.224;22.528;2023-04-24T06:32:48;33.55;;;26.83;;
66830;SDS011;53739;44.224;22.528;2023-04-24T06:38:31;32.67;;;24.40;;
66830;SDS011;53739;44.224;22.528;2023-04-24T06:44:22;22.65;;;19.67;;
66830;SDS011;53739;44.224;22.528;2023-04-24T06:46:57;20.48;;;16.77;;
66830;SDS011;53739;44.224;22.528;2023-04-24T06:49:23;18.80;;;15.63;;
66830;SDS011;53739;44.224;22.528;2023-04-24T07:04:03;14.50;;;12.52;;
66830;SDS011;53739;44.224;22.528;2023-04-24T07:09:08;18.27;;;13.63;;
66830;SDS011;53739;44.224;22.528;2023-04-24T07:11:34;14.57;;;13.07;;
66830;SDS011;53739;44.224;22.528;2023-04-24T07:14:11;19.33;;;12.90;;
66830;SDS011;53739;44.224;22.528;2023-04-24T08:19:55;18.30;;;13.98;;
66830;SDS011;53739;44.224;22.528;2023-04-24T08:43:17;19.77;;;14.10;;
66830;SDS011;53739;44.224;22.528;2023-04-24T08:52:55;22.50;;;19.38;;
66830;SDS011;53739;44.224;22.528;2023-04-24T08:55:24;22.17;;;19.42;;
66830;SDS011;53739;44.224;22.528;2023-04-24T08:57:53;19.60;;;16.67;;
66830;SDS011;53739;44.224;22.528;2023-04-24T09:00:27;34.70;;;23.27;;
66830;SDS011;53739;44.224;22.528;2023-04-24T09:09:43;19.55;;;14.68;;
66830;SDS011;53739;44.224;22.528;2023-04-24T09:15:38;24.70;;;17.85;;
66830;SDS011;53739;44.224;22.528;2023-04-24T09:43:47;18.30;;;14.18;;
66830;SDS011;53739;44.224;22.528;2023-04-24T09:46:13;20.85;;;14.75;;
66830;SDS011;53739;44.224;22.528;2023-04-24T09:48:39;20.52;;;16.92;;
66830;SDS011;53739;44.224;22.528;2023-04-24T09:51:05;18.52;;;15.20;;
66830;SDS011;53739;44.224;22.528;2023-04-24T09:53:38;26.35;;;20.48;;
66830;SDS011;53739;44.224;22.528;2023-04-24T09:56:07;21.95;;;17.05;;
66830;SDS011;53739;44.224;22.528;2023-04-24T09:58:35;18.58;;;16.20;;
66830;SDS011;53739;44.224;22.528;2023-04-24T10:01:01;20.08;;;17.75;;
66830;SDS011;53739;44.224;22.528;2023-04-24T10:03:30;27.75;;;20.98;;
66830;SDS011;53739;44.224;22.528;2023-04-24T10:06:01;22.75;;;20.27;;
66830;SDS011;53739;44.224;22.528;2023-04-24T10:08:33;28.27;;;21.40;;
66830;SDS011;53739;44.224;22.528;2023-04-24T10:11:00;33.40;;;26.73;;
66830;SDS011;53739;44.224;22.528;2023-04-24T10:13:26;37.47;;;33.30;;
66830;SDS011;53739;44.224;22.528;2023-04-24T10:15:53;26.05;;;20.30;;
66830;SDS011;53739;44.224;22.528;2023-04-24T10:18:21;22.10;;;19.25;;
66830;SDS011;53739;44.224;22.528;2023-04-24T10:20:48;55.75;;;42.15;;
66830;SDS011;53739;44.224;22.528;2023-04-24T10:23:14;23.40;;;19.05;;
66830;SDS011;53739;44.224;22.528;2023-04-24T10:25:40;35.72;;;30.83;;
66830;SDS011;53739;44.224;22.528;2023-04-24T10:28:09;18.98;;;15.07;;
66830;SDS011;53739;44.224;22.528;2023-04-24T10:30:38;22.10;;;16.67;;
66830;SDS011;53739;44.224;22.528;2023-04-24T10:33:16;15.95;;;13.68;;
66830;SDS011;53739;44.224;22.528;2023-04-24T10:35:47;28.13;;;16.58;;
66830;SDS011;53739;44.224;22.528;2023-04-24T10:38:35;16.60;;;12.32;;
66830;SDS011;53739;44.224;22.528;2023-04-24T10:41:09;15.27;;;13.68;;
66830;SDS011;53739;44.224;22.528;2023-04-24T10:44:30;17.48;;;15.68;;
66830;SDS011;53739;44.224;22.528;2023-04-24T10:46:52;13.48;;;12.10;;
66830;SDS011;53739;44.224;22.528;2023-04-24T10:56:28;24.75;;;18.73;;
66830;SDS011;53739;44.224;22.528;2023-04-24T10:59:01;15.85;;;14.15;;
66830;SDS011;53739;44.224;22.528;2023-04-24T11:01:28;15.70;;;12.68;;
66830;SDS011;53739;44.224;22.528;2023-04-24T11:03:56;108.60;;;59.20;;
66830;SDS011;53739;44.224;22.528;2023-04-24T11:06:30;166.20;;;106.43;;
66830;SDS011;53739;44.224;22.528;2023-04-24T11:11:31;89.68;;;54.25;;
66830;SDS011;53739;44.224;22.528;2023-04-24T11:19:02;15.02;;;11.63;;
66830;SDS011;53739;44.224;22.528;2023-04-24T11:24:49;17.45;;;12.90;;
66830;SDS011;53739;44.224;22.528;2023-04-24T11:27:19;12.73;;;10.50;;
66830;SDS011;53739;44.224;22.528;2023-04-24T11:29:49;16.70;;;12.65;;
66830;SDS011;53739;44.224;22.528;2023-04-24T11:32:43;25.70;;;18.73;;
66830;SDS011;53739;44.224;22.528;2023-04-24T11:35:16;18.45;;;13.52;;
66830;SDS011;53739;44.224;22.528;2023-04-24T11:37:43;14.75;;;11.35;;
66830;SDS011;53739;44.224;22.528;2023-04-24T11:40:19;15.77;;;12.23;;
66830;SDS011;53739;44.224;22.528;2023-04-24T11:42:51;17.67;;;14.60;;
66830;SDS011;53739;44.224;22.528;2023-04-24T11:45:31;19.92;;;13.38;;
66830;SDS011;53739;44.224;22.528;2023-04-24T11:51:52;27.30;;;18.77;;
66830;SDS011;53739;44.224;22.528;2023-04-24T12:01:02;15.00;;;11.68;;
66830;SDS011;53739;44.224;22.528;2023-04-24T12:06:30;16.80;;;15.10;;
66830;SDS011;53739;44.224;22.528;2023-04-24T12:15:11;13.52;;;11.93;;
66830;SDS011;53739;44.224;22.528;2023-04-24T12:17:45;15.52;;;12.10;;
66830;SDS011;53739;44.224;22.528;2023-04-24T12:20:16;19.45;;;14.57;;
66830;SDS011;53739;44.224;22.528;2023-04-24T12:22:52;13.30;;;11.02;;
66830;SDS011;53739;44.224;22.528;2023-04-24T12:25:23;16.30;;;12.05;;
66830;SDS011;53739;44.224;22.528;2023-04-24T12:37:46;16.48;;;11.75;;
66830;SDS011;53739;44.224;22.528;2023-04-24T12:41:12;15.88;;;11.85;;
66830;SDS011;53739;44.224;22.528;2023-04-24T12:51:03;18.70;;;13.60;;
66830;SDS011;53739;44.224;22.528;2023-04-24T13:17:03;17.55;;;11.55;;
66830;SDS011;53739;44.224;22.528;2023-04-24T13:51:18;12.80;;;8.70;;
66830;SDS011;53739;44.224;22.528;2023-04-24T13:53:43;11.43;;;8.10;;
66830;SDS011;53739;44.224;22.528;2023-04-24T13:56:09;16.83;;;11.48;;
66830;SDS011;53739;44.224;22.528;2023-04-24T13:58:37;13.77;;;8.82;;
66830;SDS011;53739;44.224;22.528;2023-04-24T14:01:03;13.55;;;10.52;;
66830;SDS011;53739;44.224;22.528;2023-04-24T14:03:29;13.90;;;9.20;;
66830;SDS011;53739;44.224;22.528;2023-04-24T14:05:55;16.00;;;10.82;;
66830;SDS011;53739;44.224;22.528;2023-04-24T14:08:21;15.20;;;11.85;;
66830;SDS011;53739;44.224;22.528;2023-04-24T14:10:47;14.23;;;11.07;;
66830;SDS011;53739;44.224;22.528;2023-04-24T14:13:13;17.95;;;12.05;;
66830;SDS011;53739;44.224;22.528;2023-04-24T14:15:39;13.10;;;11.63;;
66830;SDS011;53739;44.224;22.528;2023-04-24T14:18:08;14.65;;;10.63;;
66830;SDS011;53739;44.224;22.528;2023-04-24T14:20:34;21.55;;;13.95;;
66830;SDS011;53739;44.224;22.528;2023-04-24T14:23:00;10.18;;;8.48;;
66830;SDS011;53739;44.224;22.528;2023-04-24T14:25:26;13.32;;;9.27;;
66830;SDS011;53739;44.224;22.528;2023-04-24T14:27:52;13.57;;;10.35;;
66830;SDS011;53739;44.224;22.528;2023-04-24T14:30:18;16.35;;;12.82;;
66830;SDS011;53739;44.224;22.528;2023-04-24T14:32:44;15.73;;;12.32;;
66830;SDS011;53739;44.224;22.528;2023-04-24T14:35:10;19.17;;;14.05;;
66830;SDS011;53739;44.224;22.528;2023-04-24T14:37:36;14.95;;;13.05;;
66830;SDS011;53739;44.224;22.528;2023-04-24T14:40:02;24.60;;;22.13;;
66830;SDS011;53739;44.224;22.528;2023-04-24T14:42:33;23.30;;;20.45;;
66830;SDS011;53739;44.224;22.528;2023-04-24T14:44:59;21.90;;;19.70;;
66830;SDS011;53739;44.224;22.528;2023-04-24T14:47:42;24.42;;;17.00;;
66830;SDS011;53739;44.224;22.528;2023-04-24T14:50:11;84.93;;;46.83;;
66830;SDS011;53739;44.224;22.528;2023-04-24T14:52:37;119.93;;;61.72;;
66830;SDS011;53739;44.224;22.528;2023-04-24T14:55:04;201.52;;;99.22;;
66830;SDS011;53739;44.224;22.528;2023-04-24T14:57:32;101.28;;;50.45;;
66830;SDS011;53739;44.224;22.528;2023-04-24T14:59:58;209.10;;;103.00;;
66830;SDS011;53739;44.224;22.528;2023-04-24T15:02:32;116.85;;;55.97;;
66830;SDS011;53739;44.224;22.528;2023-04-24T15:04:58;41.67;;;26.98;;
66830;SDS011;53739;44.224;22.528;2023-04-24T15:07:24;60.65;;;50.75;;
66830;SDS011;53739;44.224;22.528;2023-04-24T15:09:50;50.10;;;35.35;;
66830;SDS011;53739;44.224;22.528;2023-04-24T15:12:16;42.92;;;32.95;;
66830;SDS011;53739;44.224;22.528;2023-04-24T15:14:42;30.55;;;24.75;;
66830;SDS011;53739;44.224;22.528;2023-04-24T15:17:07;31.23;;;21.85;;
66830;SDS011;53739;44.224;22.528;2023-04-24T15:19:33;42.50;;;32.63;;
66830;SDS011;53739;44.224;22.528;2023-04-24T15:21:59;40.03;;;30.88;;
66830;SDS011;53739;44.224;22.528;2023-04-24T15:24:25;59.25;;;39.45;;
66830;SDS011;53739;44.224;22.528;2023-04-24T15:26:51;53.50;;;36.30;;
66830;SDS011;53739;44.224;22.528;2023-04-24T15:29:17;88.25;;;54.95;;
66830;SDS011;53739;44.224;22.528;2023-04-24T15:31:43;70.70;;;48.28;;
66830;SDS011;53739;44.224;22.528;2023-04-24T15:34:09;73.45;;;45.50;;
66830;SDS011;53739;44.224;22.528;2023-04-24T15:36:35;66.43;;;41.72;;
66830;SDS011;53739;44.224;22.528;2023-04-24T15:39:01;134.13;;;83.25;;
66830;SDS011;53739;44.224;22.528;2023-04-24T15:41:27;132.18;;;79.00;;
66830;SDS011;53739;44.224;22.528;2023-04-24T15:43:53;96.05;;;62.92;;
66830;SDS011;53739;44.224;22.528;2023-04-24T15:46:19;113.53;;;77.80;;
66830;SDS011;53739;44.224;22.528;2023-04-24T15:48:45;120.57;;;83.75;;
66830;SDS011;53739;44.224;22.528;2023-04-24T15:51:11;95.07;;;63.35;;
66830;SDS011;53739;44.224;22.528;2023-04-24T15:53:40;212.50;;;134.38;;
66830;SDS011;53739;44.224;22.528;2023-04-24T15:56:17;114.15;;;73.00;;
66830;SDS011;53739;44.224;22.528;2023-04-24T16:02:35;52.45;;;38.15;;
66830;SDS011;53739;44.224;22.528;2023-04-24T16:05:07;108.63;;;74.47;;
66830;SDS011;53739;44.224;22.528;2023-04-24T16:07:38;90.30;;;72.15;;
66830;SDS011;53739;44.224;22.528;2023-04-24T16:10:04;92.13;;;66.38;;
66830;SDS011;53739;44.224;22.528;2023-04-24T16:12:30;80.45;;;59.78;;
66830;SDS011;53739;44.224;22.528;2023-04-24T16:14:56;66.93;;;55.08;;
66830;SDS011;53739;44.224;22.528;2023-04-24T16:17:23;63.67;;;50.95;;
66830;SDS011;53739;44.224;22.528;2023-04-24T16:19:48;66.63;;;50.28;;
66830;SDS011;53739;44.224;22.528;2023-04-24T16:22:14;69.97;;;50.55;;
66830;SDS011;53739;44.224;22.528;2023-04-24T16:24:40;72.63;;;51.70;;
66830;SDS011;53739;44.224;22.528;2023-04-24T16:27:07;77.43;;;53.10;;
66830;SDS011;53739;44.224;22.528;2023-04-24T16:29:33;80.50;;;56.95;;
66830;SDS011;53739;44.224;22.528;2023-04-24T16:31:59;67.78;;;48.13;;
66830;SDS011;53739;44.224;22.528;2023-04-24T16:34:25;61.00;;;44.78;;
66830;SDS011;53739;44.224;22.528;2023-04-24T16:36:50;77.72;;;55.28;;
66830;SDS011;53739;44.224;22.528;2023-04-24T16:39:16;78.78;;;57.78;;
66830;SDS011;53739;44.224;22.528;2023-04-24T16:41:42;58.63;;;44.03;;
66830;SDS011;53739;44.224;22.528;2023-04-24T16:44:09;64.30;;;46.97;;
66830;SDS011;53739;44.224;22.528;2023-04-24T16:46:35;47.75;;;38.00;;
66830;SDS011;53739;44.224;22.528;2023-04-24T16:49:00;39.80;;;28.67;;
66830;SDS011;53739;44.224;22.528;2023-04-24T16:51:26;42.30;;;33.00;;
66830;SDS011;53739;44.224;22.528;2023-04-24T16:53:53;48.15;;;35.40;;
66830;SDS011;53739;44.224;22.528;2023-04-24T16:56:19;58.83;;;36.40;;
66830;SDS011;53739;44.224;22.528;2023-04-24T16:58:45;42.55;;;32.25;;
66830;SDS011;53739;44.224;22.528;2023-04-24T17:01:11;46.78;;;36.33;;
66830;SDS011;53739;44.224;22.528;2023-04-24T17:03:37;45.80;;;35.47;;
66830;SDS011;53739;44.224;22.528;2023-04-24T17:06:03;57.05;;;42.25;;
66830;SDS011;53739;44.224;22.528;2023-04-24T17:08:29;61.85;;;45.63;;
66830;SDS011;53739;44.224;22.528;2023-04-24T17:10:56;52.00;;;37.50;;
66830;SDS011;53739;44.224;22.528;2023-04-24T17:13:22;52.35;;;38.78;;
66830;SDS011;53739;44.224;22.528;2023-04-24T17:15:48;51.55;;;37.35;;
66830;SDS011;53739;44.224;22.528;2023-04-24T17:18:14;39.33;;;29.25;;
66830;SDS011;53739;44.224;22.528;2023-04-24T17:20:41;43.13;;;33.35;;
66830;SDS011;53739;44.224;22.528;2023-04-24T17:23:07;50.70;;;38.72;;
66830;SDS011;53739;44.224;22.528;2023-04-24T17:25:36;39.63;;;32.28;;
66830;SDS011;53739;44.224;22.528;2023-04-24T17:28:01;46.10;;;32.88;;
66830;SDS011;53739;44.224;22.528;2023-04-24T17:30:28;38.47;;;30.92;;
66830;SDS011;53739;44.224;22.528;2023-04-24T17:32:54;31.98;;;25.35;;
66830;SDS011;53739;44.224;22.528;2023-04-24T17:35:20;33.13;;;24.38;;
66830;SDS011;53739;44.224;22.528;2023-04-24T17:37:46;31.35;;;24.27;;
66830;SDS011;53739;44.224;22.528;2023-04-24T17:40:12;35.05;;;28.48;;
66830;SDS011;53739;44.224;22.528;2023-04-24T17:42:37;42.15;;;33.42;;
66830;SDS011;53739;44.224;22.528;2023-04-24T17:45:07;201.00;;;109.70;;
66830;SDS011;53739;44.224;22.528;2023-04-24T17:47:34;105.13;;;71.63;;
66830;SDS011;53739;44.224;22.528;2023-04-24T17:50:02;129.88;;;86.95;;
66830;SDS011;53739;44.224;22.528;2023-04-24T17:52:31;138.98;;;91.78;;
66830;SDS011;53739;44.224;22.528;2023-04-24T17:54:58;102.30;;;75.82;;
66830;SDS011;53739;44.224;22.528;2023-04-24T17:57:24;180.80;;;124.72;;
66830;SDS011;53739;44.224;22.528;2023-04-24T17:59:49;280.83;;;193.40;;
66830;SDS011;53739;44.224;22.528;2023-04-24T18:02:15;201.73;;;136.18;;
66830;SDS011;53739;44.224;22.528;2023-04-24T18:04:41;170.30;;;106.90;;
66830;SDS011;53739;44.224;22.528;2023-04-24T18:07:07;194.43;;;115.70;;
66830;SDS011;53739;44.224;22.528;2023-04-24T18:09:32;200.00;;;110.00;;
66830;SDS011;53739;44.224;22.528;2023-04-24T18:11:58;171.18;;;110.47;;
66830;SDS011;53739;44.224;22.528;2023-04-24T18:14:25;190.25;;;125.75;;
66830;SDS011;53739;44.224;22.528;2023-04-24T18:16:52;170.70;;;125.88;;
66830;SDS011;53739;44.224;22.528;2023-04-24T18:19:18;80.22;;;60.40;;
66830;SDS011;53739;44.224;22.528;2023-04-24T18:21:44;89.85;;;65.47;;
66830;SDS011;53739;44.224;22.528;2023-04-24T18:24:10;123.88;;;79.35;;
66830;SDS011;53739;44.224;22.528;2023-04-24T18:26:35;99.25;;;64.05;;
66830;SDS011;53739;44.224;22.528;2023-04-24T18:29:01;95.13;;;73.20;;
66830;SDS011;53739;44.224;22.528;2023-04-24T18:31:27;137.63;;;103.03;;
66830;SDS011;53739;44.224;22.528;2023-04-24T18:33:53;153.90;;;109.03;;
66830;SDS011;53739;44.224;22.528;2023-04-24T18:36:19;147.43;;;101.30;;
66830;SDS011;53739;44.224;22.528;2023-04-24T18:38:45;188.68;;;140.95;;
66830;SDS011;53739;44.224;22.528;2023-04-24T18:41:11;220.02;;;170.32;;
66830;SDS011;53739;44.224;22.528;2023-04-24T18:43:38;116.25;;;91.22;;
66830;SDS011;53739;44.224;22.528;2023-04-24T18:46:04;101.05;;;76.38;;
66830;SDS011;53739;44.224;22.528;2023-04-24T18:48:30;99.07;;;81.50;;
66830;SDS011;53739;44.224;22.528;2023-04-24T18:50:55;65.03;;;53.58;;
66830;SDS011;53739;44.224;22.528;2023-04-24T18:53:21;60.75;;;51.95;;
66830;SDS011;53739;44.224;22.528;2023-04-24T18:55:48;51.30;;;44.55;;
66830;SDS011;53739;44.224;22.528;2023-04-24T18:58:14;50.55;;;41.38;;
66830;SDS011;53739;44.224;22.528;2023-04-24T19:00:40;48.10;;;40.58;;
66830;SDS011;53739;44.224;22.528;2023-04-24T19:03:05;73.15;;;55.10;;
66830;SDS011;53739;44.224;22.528;2023-04-24T19:05:32;79.60;;;61.28;;
66830;SDS011;53739;44.224;22.528;2023-04-24T19:07:58;104.30;;;76.30;;
66830;SDS011;53739;44.224;22.528;2023-04-24T19:10:24;207.45;;;130.40;;
66830;SDS011;53739;44.224;22.528;2023-04-24T19:12:51;146.98;;;96.82;;
66830;SDS011;53739;44.224;22.528;2023-04-24T19:15:22;146.55;;;99.32;;
66830;SDS011;53739;44.224;22.528;2023-04-24T19:17:48;168.82;;;117.43;;
66830;SDS011;53739;44.224;22.528;2023-04-24T19:20:15;140.27;;;97.15;;
66830;SDS011;53739;44.224;22.528;2023-04-24T19:22:45;128.07;;;88.03;;
66830;SDS011;53739;44.224;22.528;2023-04-24T19:25:11;111.95;;;76.00;;
66830;SDS011;53739;44.224;22.528;2023-04-24T19:27:38;146.05;;;99.97;;
66830;SDS011;53739;44.224;22.528;2023-04-24T19:30:04;136.50;;;96.72;;
66830;SDS011;53739;44.224;22.528;2023-04-24T19:32:30;109.18;;;86.25;;
66830;SDS011;53739;44.224;22.528;2023-04-24T19:34:56;116.53;;;96.13;;
66830;SDS011;53739;44.224;22.528;2023-04-24T19:37:22;96.05;;;77.10;;
66830;SDS011;53739;44.224;22.528;2023-04-24T19:39:48;71.35;;;59.05;;
66830;SDS011;53739;44.224;22.528;2023-04-24T19:42:14;71.97;;;55.05;;
66830;SDS011;53739;44.224;22.528;2023-04-24T19:44:40;76.45;;;59.80;;
66830;SDS011;53739;44.224;22.528;2023-04-24T19:47:05;99.70;;;74.25;;
66830;SDS011;53739;44.224;22.528;2023-04-24T19:49:31;123.88;;;88.22;;
66830;SDS011;53739;44.224;22.528;2023-04-24T19:51:57;196.77;;;125.47;;
66830;SDS011;53739;44.224;22.528;2023-04-24T19:54:26;145.50;;;103.30;;
66830;SDS011;53739;44.224;22.528;2023-04-24T19:56:51;114.93;;;87.50;;
66830;SDS011;53739;44.224;22.528;2023-04-24T19:59:17;134.35;;;109.50;;
66830;SDS011;53739;44.224;22.528;2023-04-24T20:01:43;95.60;;;75.93;;
66830;SDS011;53739;44.224;22.528;2023-04-24T20:04:09;87.93;;;63.92;;
66830;SDS011;53739;44.224;22.528;2023-04-24T20:06:37;69.40;;;52.17;;
66830;SDS011;53739;44.224;22.528;2023-04-24T20:09:03;56.42;;;43.60;;
66830;SDS011;53739;44.224;22.528;2023-04-24T20:11:32;70.10;;;52.08;;
66830;SDS011;53739;44.224;22.528;2023-04-24T20:13:58;70.68;;;54.53;;
66830;SDS011;53739;44.224;22.528;2023-04-24T20:16:25;62.13;;;48.22;;
66830;SDS011;53739;44.224;22.528;2023-04-24T20:18:51;63.47;;;50.38;;
66830;SDS011;53739;44.224;22.528;2023-04-24T20:21:17;65.47;;;53.00;;
66830;SDS011;53739;44.224;22.528;2023-04-24T20:23:43;71.43;;;55.65;;
66830;SDS011;53739;44.224;22.528;2023-04-24T20:26:09;64.68;;;52.63;;
66830;SDS011;53739;44.224;22.528;2023-04-24T20:28:35;64.10;;;51.72;;
66830;SDS011;53739;44.224;22.528;2023-04-24T20:31:01;68.47;;;53.58;;
66830;SDS011;53739;44.224;22.528;2023-04-24T20:33:28;83.65;;;60.97;;
66830;SDS011;53739;44.224;22.528;2023-04-24T20:35:54;84.05;;;60.25;;
66830;SDS011;53739;44.224;22.528;2023-04-24T20:38:20;80.55;;;59.00;;
66830;SDS011;53739;44.224;22.528;2023-04-24T20:40:47;84.57;;;65.50;;
66830;SDS011;53739;44.224;22.528;2023-04-24T20:43:13;79.93;;;63.92;;
66830;SDS011;53739;44.224;22.528;2023-04-24T20:45:40;77.07;;;61.60;;
66830;SDS011;53739;44.224;22.528;2023-04-24T20:48:06;73.97;;;58.03;;
66830;SDS011;53739;44.224;22.528;2023-04-24T20:50:33;79.78;;;60.55;;
66830;SDS011;53739;44.224;22.528;2023-04-24T20:53:03;99.28;;;73.78;;
66830;SDS011;53739;44.224;22.528;2023-04-24T20:55:29;104.40;;;78.68;;
66830;SDS011;53739;44.224;22.528;2023-04-24T20:57:56;95.40;;;71.22;;
66830;SDS011;53739;44.224;22.528;2023-04-24T21:00:24;124.93;;;88.18;;
66830;SDS011;53739;44.224;22.528;2023-04-24T21:02:50;124.75;;;89.32;;
66830;SDS011;53739;44.224;22.528;2023-04-24T21:05:16;101.50;;;72.82;;
66830;SDS011;53739;44.224;22.528;2023-04-24T21:07:42;123.38;;;87.43;;
66830;SDS011;53739;44.224;22.528;2023-04-24T21:10:08;130.05;;;97.97;;
66830;SDS011;53739;44.224;22.528;2023-04-24T21:12:34;156.52;;;130.45;;
66830;SDS011;53739;44.224;22.528;2023-04-24T21:15:00;137.45;;;112.75;;
66830;SDS011;53739;44.224;22.528;2023-04-24T21:17:26;169.52;;;115.10;;
66830;SDS011;53739;44.224;22.528;2023-04-24T21:19:51;140.52;;;101.15;;
66830;SDS011;53739;44.224;22.528;2023-04-24T21:22:17;120.72;;;86.88;;
66830;SDS011;53739;44.224;22.528;2023-04-24T21:24:43;141.85;;;105.82;;
66830;SDS011;53739;44.224;22.528;2023-04-24T21:27:09;118.32;;;88.22;;
66830;SDS011;53739;44.224;22.528;2023-04-24T21:29:35;107.35;;;84.32;;
66830;SDS011;53739;44.224;22.528;2023-04-24T21:32:01;108.18;;;80.93;;
66830;SDS011;53739;44.224;22.528;2023-04-24T21:34:27;124.22;;;83.30;;
66830;SDS011;53739;44.224;22.528;2023-04-24T21:36:53;109.60;;;76.90;;
66830;SDS011;53739;44.224;22.528;2023-04-24T21:39:19;86.10;;;66.70;;
66830;SDS011;53739;44.224;22.528;2023-04-24T21:41:45;92.07;;;71.25;;
66830;SDS011;53739;44.224;22.528;2023-04-24T21:44:11;87.88;;;68.13;;
66830;SDS011;53739;44.224;22.528;2023-04-24T21:46:37;113.10;;;85.63;;
66830;SDS011;53739;44.224;22.528;2023-04-24T21:49:04;106.85;;;80.28;;
66830;SDS011;53739;44.224;22.528;2023-04-24T21:58:09;78.80;;;52.17;;
66830;SDS011;53739;44.224;22.528;2023-04-24T22:00:36;77.53;;;56.15;;
66830;SDS011;53739;44.224;22.528;2023-04-24T22:03:04;64.82;;;51.60;;
66830;SDS011;53739;44.224;22.528;2023-04-24T22:05:30;85.65;;;62.72;;
66830;SDS011;53739;44.224;22.528;2023-04-24T22:07:57;73.78;;;55.67;;
66830;SDS011;53739;44.224;22.528;2023-04-24T22:10:23;94.90;;;68.03;;
66830;SDS011;53739;44.224;22.528;2023-04-24T22:12:49;72.70;;;53.67;;
66830;SDS011;53739;44.224;22.528;2023-04-24T22:15:15;75.68;;;56.05;;
66830;SDS011;53739;44.224;22.528;2023-04-24T22:17:41;86.70;;;62.33;;
66830;SDS011;53739;44.224;22.528;2023-04-24T22:20:07;86.97;;;63.53;;
66830;SDS011;53739;44.224;22.528;2023-04-24T22:22:34;94.00;;;67.75;;
66830;SDS011;53739;44.224;22.528;2023-04-24T22:25:00;99.15;;;69.30;;
66830;SDS011;53739;44.224;22.528;2023-04-24T22:27:26;88.20;;;62.70;;
66830;SDS011;53739;44.224;22.528;2023-04-24T22:29:52;79.65;;;59.13;;
66830;SDS011;53739;44.224;22.528;2023-04-24T22:32:17;90.78;;;66.80;;
66830;SDS011;53739;44.224;22.528;2023-04-24T22:34:43;91.57;;;70.18;;
66830;SDS011;53739;44.224;22.528;2023-04-24T22:37:09;111.70;;;76.25;;
66830;SDS011;53739;44.224;22.528;2023-04-24T22:39:35;98.88;;;73.15;;
66830;SDS011;53739;44.224;22.528;2023-04-24T22:42:01;98.88;;;70.97;;
66830;SDS011;53739;44.224;22.528;2023-04-24T22:44:27;100.47;;;73.07;;
66830;SDS011;53739;44.224;22.528;2023-04-24T22:46:53;108.10;;;75.38;;
66830;SDS011;53739;44.224;22.528;2023-04-24T22:49:19;87.75;;;65.40;;
66830;SDS011;53739;44.224;22.528;2023-04-24T22:51:46;92.68;;;67.40;;
66830;SDS011;53739;44.224;22.528;2023-04-24T22:54:12;115.75;;;78.47;;
66830;SDS011;53739;44.224;22.528;2023-04-24T22:56:37;125.90;;;83.10;;
66830;SDS011;53739;44.224;22.528;2023-04-24T22:59:03;101.85;;;71.88;;
66830;SDS011;53739;44.224;22.528;2023-04-24T23:01:30;112.97;;;77.20;;
66830;SDS011;53739;44.224;22.528;2023-04-24T23:03:56;100.47;;;74.47;;
66830;SDS011;53739;44.224;22.528;2023-04-24T23:06:22;105.90;;;74.97;;
66830;SDS011;53739;44.224;22.528;2023-04-24T23:08:48;93.03;;;67.85;;
66830;SDS011;53739;44.224;22.528;2023-04-24T23:11:14;94.15;;;68.95;;
66830;SDS011;53739;44.224;22.528;2023-04-24T23:13:40;109.75;;;76.85;;
66830;SDS011;53739;44.224;22.528;2023-04-24T23:16:06;98.72;;;63.58;;
66830;SDS011;53739;44.224;22.528;2023-04-24T23:18:32;94.53;;;65.85;;
66830;SDS011;53739;44.224;22.528;2023-04-24T23:20:58;96.97;;;63.00;;
66830;SDS011;53739;44.224;22.528;2023-04-24T23:23:26;77.63;;;58.00;;
66830;SDS011;53739;44.224;22.528;2023-04-24T23:25:52;89.80;;;58.95;;
66830;SDS011;53739;44.224;22.528;2023-04-24T23:28:18;138.75;;;68.30;;
66830;SDS011;53739;44.224;22.528;2023-04-24T23:30:43;142.18;;;75.65;;
66830;SDS011;53739;44.224;22.528;2023-04-24T23:33:09;137.88;;;76.85;;
66830;SDS011;53739;44.224;22.528;2023-04-24T23:35:35;129.45;;;79.18;;
66830;SDS011;53739;44.224;22.528;2023-04-24T23:38:01;135.35;;;81.57;;
66830;SDS011;53739;44.224;22.528;2023-04-24T23:40:27;204.90;;;100.65;;
66830;SDS011;53739;44.224;22.528;2023-04-24T23:42:53;142.57;;;83.97;;
66830;SDS011;53739;44.224;22.528;2023-04-24T23:45:19;128.40;;;78.43;;
66830;SDS011;53739;44.224;22.528;2023-04-24T23:47:45;141.43;;;89.07;;
66830;SDS011;53739;44.224;22.528;2023-04-24T23:50:11;138.00;;;84.30;;
66830;SDS011;53739;44.224;22.528;2023-04-24T23:52:37;144.05;;;88.18;;
66830;SDS011;53739;44.224;22.528;2023-04-24T23:55:03;111.60;;;73.03;;
66830;SDS011;53739;44.224;22.528;2023-04-24T23:57:29;105.30;;;68.97;;
66830;SDS011;53739;44.224;22.528;2023-04-24T23:59:56;91.45;;;65.90;;
